sensor_id;sensor_type;location;lat;lon;timestamp;P1;durP1;ratioP1;P2;durP2;ratioP2
54416;SDS011;40326;51.220;7.250;2022-07-06T00:02:20;5.03;;;2.15;;
54416;SDS011;40326;51.220;7.250;2022-07-06T00:04:45;4.35;;;2.00;;
54416;SDS011;40326;51.220;7.250;2022-07-06T00:07:11;3.80;;;2.40;;
54416;SDS011;40326;51.220;7.250;2022-07-06T00:09:39;4.53;;;2.08;;
54416;SDS011;40326;51.220;7.250;2022-07-06T00:12:04;5.15;;;2.05;;
54416;SDS011;40326;51.220;7.250;2022-07-06T00:14:30;5.18;;;2.38;;
54416;SDS011;40326;51.220;7.250;2022-07-06T00:16:55;3.92;;;2.30;;
54416;SDS011;40326;51.220;7.250;2022-07-06T00:19:21;3.72;;;2.33;;
54416;SDS011;40326;51.220;7.250;2022-07-06T00:21:46;5.15;;;2.70;;
54416;SDS011;40326;51.220;7.250;2022-07-06T00:24:11;4.65;;;2.60;;
54416;SDS011;40326;51.220;7.250;2022-07-06T00:26:37;5.97;;;2.50;;
54416;SDS011;40326;51.220;7.250;2022-07-06T00:29:02;4.20;;;2.40;;
54416;SDS011;40326;51.220;7.250;2022-07-06T00:31:27;6.20;;;2.45;;
54416;SDS011;40326;51.220;7.250;2022-07-06T00:33:53;6.32;;;3.05;;
54416;SDS011;40326;51.220;7.250;2022-07-06T00:36:18;5.80;;;2.92;;
54416;SDS011;40326;51.220;7.250;2022-07-06T00:38:43;5.63;;;2.78;;
54416;SDS011;40326;51.220;7.250;2022-07-06T00:41:09;6.22;;;2.42;;
54416;SDS011;40326;51.220;7.250;2022-07-06T00:43:50;3.53;;;2.33;;
54416;SDS011;40326;51.220;7.250;2022-07-06T00:46:16;4.55;;;2.30;;
54416;SDS011;40326;51.220;7.250;2022-07-06T00:48:41;4.63;;;2.50;;
54416;SDS011;40326;51.220;7.250;2022-07-06T00:51:07;4.07;;;2.20;;
54416;SDS011;40326;51.220;7.250;2022-07-06T00:53:32;5.40;;;2.30;;
54416;SDS011;40326;51.220;7.250;2022-07-06T00:55:57;5.82;;;2.30;;
54416;SDS011;40326;51.220;7.250;2022-07-06T00:58:23;6.70;;;2.20;;
54416;SDS011;40326;51.220;7.250;2022-07-06T01:00:49;4.88;;;2.42;;
54416;SDS011;40326;51.220;7.250;2022-07-06T01:03:15;4.22;;;2.20;;
54416;SDS011;40326;51.220;7.250;2022-07-06T01:05:40;4.30;;;2.47;;
54416;SDS011;40326;51.220;7.250;2022-07-06T01:08:07;6.47;;;2.20;;
54416;SDS011;40326;51.220;7.250;2022-07-06T01:10:34;6.85;;;2.80;;
54416;SDS011;40326;51.220;7.250;2022-07-06T01:13:01;5.47;;;2.72;;
54416;SDS011;40326;51.220;7.250;2022-07-06T01:15:27;4.82;;;2.47;;
54416;SDS011;40326;51.220;7.250;2022-07-06T01:17:54;5.43;;;2.40;;
54416;SDS011;40326;51.220;7.250;2022-07-06T01:20:22;5.47;;;2.72;;
54416;SDS011;40326;51.220;7.250;2022-07-06T01:22:51;6.80;;;2.67;;
54416;SDS011;40326;51.220;7.250;2022-07-06T01:25:20;5.85;;;2.80;;
54416;SDS011;40326;51.220;7.250;2022-07-06T01:27:47;5.40;;;2.75;;
54416;SDS011;40326;51.220;7.250;2022-07-06T01:30:14;3.85;;;2.55;;
54416;SDS011;40326;51.220;7.250;2022-07-06T01:32:42;3.50;;;2.20;;
54416;SDS011;40326;51.220;7.250;2022-07-06T01:35:10;5.57;;;2.67;;
54416;SDS011;40326;51.220;7.250;2022-07-06T01:37:38;3.95;;;2.38;;
54416;SDS011;40326;51.220;7.250;2022-07-06T01:40:06;5.13;;;2.47;;
54416;SDS011;40326;51.220;7.250;2022-07-06T01:42:35;4.50;;;2.50;;
54416;SDS011;40326;51.220;7.250;2022-07-06T01:45:01;4.55;;;2.53;;
54416;SDS011;40326;51.220;7.250;2022-07-06T01:47:27;5.45;;;2.65;;
54416;SDS011;40326;51.220;7.250;2022-07-06T01:49:53;6.00;;;2.70;;
54416;SDS011;40326;51.220;7.250;2022-07-06T01:52:19;4.80;;;2.58;;
54416;SDS011;40326;51.220;7.250;2022-07-06T01:54:44;4.32;;;2.80;;
54416;SDS011;40326;51.220;7.250;2022-07-06T01:57:10;5.28;;;2.53;;
54416;SDS011;40326;51.220;7.250;2022-07-06T01:59:36;5.38;;;2.80;;
54416;SDS011;40326;51.220;7.250;2022-07-06T02:02:01;7.35;;;2.70;;
54416;SDS011;40326;51.220;7.250;2022-07-06T02:04:27;6.25;;;3.17;;
54416;SDS011;40326;51.220;7.250;2022-07-06T02:06:52;4.93;;;2.50;;
54416;SDS011;40326;51.220;7.250;2022-07-06T02:09:17;5.65;;;2.63;;
54416;SDS011;40326;51.220;7.250;2022-07-06T02:11:43;5.38;;;2.60;;
54416;SDS011;40326;51.220;7.250;2022-07-06T02:14:09;5.15;;;2.38;;
54416;SDS011;40326;51.220;7.250;2022-07-06T02:16:34;5.57;;;2.58;;
54416;SDS011;40326;51.220;7.250;2022-07-06T02:18:59;3.85;;;2.30;;
54416;SDS011;40326;51.220;7.250;2022-07-06T02:21:25;5.78;;;2.60;;
54416;SDS011;40326;51.220;7.250;2022-07-06T02:23:50;5.18;;;2.40;;
54416;SDS011;40326;51.220;7.250;2022-07-06T02:26:16;7.93;;;2.33;;
54416;SDS011;40326;51.220;7.250;2022-07-06T02:28:41;4.53;;;2.45;;
54416;SDS011;40326;51.220;7.250;2022-07-06T02:31:06;4.00;;;2.30;;
54416;SDS011;40326;51.220;7.250;2022-07-06T02:33:32;6.00;;;2.38;;
54416;SDS011;40326;51.220;7.250;2022-07-06T02:35:57;3.55;;;2.03;;
54416;SDS011;40326;51.220;7.250;2022-07-06T02:38:22;4.70;;;2.42;;
54416;SDS011;40326;51.220;7.250;2022-07-06T02:40:48;4.95;;;2.58;;
54416;SDS011;40326;51.220;7.250;2022-07-06T02:43:13;4.13;;;2.50;;
54416;SDS011;40326;51.220;7.250;2022-07-06T02:45:39;5.72;;;2.60;;
54416;SDS011;40326;51.220;7.250;2022-07-06T02:48:04;5.72;;;2.70;;
54416;SDS011;40326;51.220;7.250;2022-07-06T02:50:30;5.25;;;2.58;;
54416;SDS011;40326;51.220;7.250;2022-07-06T02:52:55;6.47;;;2.95;;
54416;SDS011;40326;51.220;7.250;2022-07-06T02:55:21;3.67;;;2.20;;
54416;SDS011;40326;51.220;7.250;2022-07-06T02:57:46;4.35;;;2.60;;
54416;SDS011;40326;51.220;7.250;2022-07-06T03:00:12;6.32;;;2.90;;
54416;SDS011;40326;51.220;7.250;2022-07-06T03:02:38;5.95;;;2.90;;
54416;SDS011;40326;51.220;7.250;2022-07-06T03:05:03;5.35;;;2.90;;
54416;SDS011;40326;51.220;7.250;2022-07-06T03:07:29;12.15;;;4.28;;
54416;SDS011;40326;51.220;7.250;2022-07-06T03:09:54;8.75;;;3.45;;
54416;SDS011;40326;51.220;7.250;2022-07-06T03:12:20;6.07;;;3.42;;
54416;SDS011;40326;51.220;7.250;2022-07-06T03:14:45;7.10;;;3.90;;
54416;SDS011;40326;51.220;7.250;2022-07-06T03:17:11;10.52;;;5.20;;
54416;SDS011;40326;51.220;7.250;2022-07-06T03:19:36;10.55;;;5.13;;
54416;SDS011;40326;51.220;7.250;2022-07-06T03:22:02;6.80;;;3.45;;
54416;SDS011;40326;51.220;7.250;2022-07-06T03:24:27;7.68;;;4.10;;
54416;SDS011;40326;51.220;7.250;2022-07-06T03:26:52;10.55;;;5.18;;
54416;SDS011;40326;51.220;7.250;2022-07-06T03:29:18;9.23;;;5.97;;
54416;SDS011;40326;51.220;7.250;2022-07-06T03:31:43;9.25;;;4.85;;
54416;SDS011;40326;51.220;7.250;2022-07-06T03:34:09;9.43;;;3.97;;
54416;SDS011;40326;51.220;7.250;2022-07-06T03:36:34;9.52;;;4.53;;
54416;SDS011;40326;51.220;7.250;2022-07-06T03:39:00;10.35;;;3.70;;
54416;SDS011;40326;51.220;7.250;2022-07-06T03:41:25;9.77;;;4.85;;
54416;SDS011;40326;51.220;7.250;2022-07-06T03:43:50;11.05;;;5.57;;
54416;SDS011;40326;51.220;7.250;2022-07-06T03:46:16;12.57;;;5.90;;
54416;SDS011;40326;51.220;7.250;2022-07-06T03:48:41;11.05;;;5.60;;
54416;SDS011;40326;51.220;7.250;2022-07-06T03:51:06;13.18;;;5.72;;
54416;SDS011;40326;51.220;7.250;2022-07-06T03:53:32;12.90;;;5.50;;
54416;SDS011;40326;51.220;7.250;2022-07-06T03:55:57;16.05;;;5.85;;
54416;SDS011;40326;51.220;7.250;2022-07-06T03:58:41;9.32;;;4.68;;
54416;SDS011;40326;51.220;7.250;2022-07-06T04:01:06;10.93;;;4.97;;
54416;SDS011;40326;51.220;7.250;2022-07-06T04:03:32;10.45;;;5.13;;
54416;SDS011;40326;51.220;7.250;2022-07-06T04:05:57;11.30;;;4.70;;
54416;SDS011;40326;51.220;7.250;2022-07-06T04:08:22;9.70;;;4.20;;
54416;SDS011;40326;51.220;7.250;2022-07-06T04:10:48;10.48;;;4.55;;
54416;SDS011;40326;51.220;7.250;2022-07-06T04:13:13;10.40;;;4.55;;
54416;SDS011;40326;51.220;7.250;2022-07-06T04:15:39;8.77;;;4.50;;
54416;SDS011;40326;51.220;7.250;2022-07-06T04:18:04;11.38;;;4.20;;
54416;SDS011;40326;51.220;7.250;2022-07-06T04:20:29;11.13;;;4.68;;
54416;SDS011;40326;51.220;7.250;2022-07-06T04:22:55;7.90;;;4.05;;
54416;SDS011;40326;51.220;7.250;2022-07-06T04:25:20;11.13;;;4.70;;
54416;SDS011;40326;51.220;7.250;2022-07-06T04:27:46;12.32;;;4.20;;
54416;SDS011;40326;51.220;7.250;2022-07-06T04:30:11;8.68;;;4.00;;
54416;SDS011;40326;51.220;7.250;2022-07-06T04:32:37;12.65;;;4.25;;
54416;SDS011;40326;51.220;7.250;2022-07-06T04:35:03;7.60;;;4.00;;
54416;SDS011;40326;51.220;7.250;2022-07-06T04:37:29;10.90;;;3.72;;
54416;SDS011;40326;51.220;7.250;2022-07-06T04:39:55;12.00;;;3.95;;
54416;SDS011;40326;51.220;7.250;2022-07-06T04:42:20;9.75;;;3.75;;
54416;SDS011;40326;51.220;7.250;2022-07-06T04:44:46;10.20;;;3.83;;
54416;SDS011;40326;51.220;7.250;2022-07-06T04:47:11;9.90;;;3.90;;
54416;SDS011;40326;51.220;7.250;2022-07-06T04:49:37;7.97;;;3.90;;
54416;SDS011;40326;51.220;7.250;2022-07-06T04:52:03;9.23;;;4.05;;
54416;SDS011;40326;51.220;7.250;2022-07-06T04:54:29;8.77;;;3.78;;
54416;SDS011;40326;51.220;7.250;2022-07-06T04:56:54;9.68;;;3.63;;
54416;SDS011;40326;51.220;7.250;2022-07-06T04:59:20;7.82;;;3.50;;
54416;SDS011;40326;51.220;7.250;2022-07-06T05:01:45;7.40;;;3.58;;
54416;SDS011;40326;51.220;7.250;2022-07-06T05:04:10;9.95;;;3.50;;
54416;SDS011;40326;51.220;7.250;2022-07-06T05:06:36;8.80;;;3.80;;
54416;SDS011;40326;51.220;7.250;2022-07-06T05:09:01;8.65;;;3.22;;
54416;SDS011;40326;51.220;7.250;2022-07-06T05:11:27;10.32;;;3.03;;
54416;SDS011;40326;51.220;7.250;2022-07-06T05:13:53;7.80;;;3.35;;
54416;SDS011;40326;51.220;7.250;2022-07-06T05:16:19;10.75;;;3.50;;
54416;SDS011;40326;51.220;7.250;2022-07-06T05:18:44;9.10;;;3.60;;
54416;SDS011;40326;51.220;7.250;2022-07-06T05:21:10;9.82;;;3.30;;
54416;SDS011;40326;51.220;7.250;2022-07-06T05:23:35;7.18;;;2.95;;
54416;SDS011;40326;51.220;7.250;2022-07-06T05:26:01;8.02;;;2.78;;
54416;SDS011;40326;51.220;7.250;2022-07-06T05:28:26;8.70;;;2.85;;
54416;SDS011;40326;51.220;7.250;2022-07-06T05:30:52;7.88;;;3.45;;
54416;SDS011;40326;51.220;7.250;2022-07-06T05:33:17;5.38;;;3.00;;
54416;SDS011;40326;51.220;7.250;2022-07-06T05:35:43;6.28;;;3.03;;
54416;SDS011;40326;51.220;7.250;2022-07-06T05:38:08;8.10;;;2.72;;
54416;SDS011;40326;51.220;7.250;2022-07-06T05:40:33;8.05;;;3.33;;
54416;SDS011;40326;51.220;7.250;2022-07-06T05:42:59;7.90;;;2.63;;
54416;SDS011;40326;51.220;7.250;2022-07-06T05:45:24;9.55;;;2.63;;
54416;SDS011;40326;51.220;7.250;2022-07-06T05:47:50;6.03;;;2.83;;
54416;SDS011;40326;51.220;7.250;2022-07-06T05:50:33;7.47;;;3.10;;
54416;SDS011;40326;51.220;7.250;2022-07-06T05:53:00;7.45;;;2.88;;
54416;SDS011;40326;51.220;7.250;2022-07-06T05:55:28;5.32;;;2.28;;
54416;SDS011;40326;51.220;7.250;2022-07-06T05:57:53;10.75;;;3.20;;
54416;SDS011;40326;51.220;7.250;2022-07-06T06:00:20;10.65;;;3.05;;
54416;SDS011;40326;51.220;7.250;2022-07-06T06:02:47;7.78;;;2.55;;
54416;SDS011;40326;51.220;7.250;2022-07-06T06:05:13;6.70;;;2.30;;
54416;SDS011;40326;51.220;7.250;2022-07-06T06:07:38;5.85;;;2.35;;
54416;SDS011;40326;51.220;7.250;2022-07-06T06:10:05;6.50;;;2.42;;
54416;SDS011;40326;51.220;7.250;2022-07-06T06:12:32;5.32;;;2.30;;
54416;SDS011;40326;51.220;7.250;2022-07-06T06:14:57;7.30;;;2.22;;
54416;SDS011;40326;51.220;7.250;2022-07-06T06:17:23;7.65;;;2.65;;
54416;SDS011;40326;51.220;7.250;2022-07-06T06:19:48;6.75;;;2.00;;
54416;SDS011;40326;51.220;7.250;2022-07-06T06:22:13;7.35;;;2.10;;
54416;SDS011;40326;51.220;7.250;2022-07-06T06:24:39;5.47;;;1.80;;
54416;SDS011;40326;51.220;7.250;2022-07-06T06:27:05;6.13;;;2.13;;
54416;SDS011;40326;51.220;7.250;2022-07-06T06:29:30;5.30;;;2.03;;
54416;SDS011;40326;51.220;7.250;2022-07-06T06:31:55;3.67;;;2.13;;
54416;SDS011;40326;51.220;7.250;2022-07-06T06:34:21;7.63;;;2.20;;
54416;SDS011;40326;51.220;7.250;2022-07-06T06:36:46;4.63;;;2.50;;
54416;SDS011;40326;51.220;7.250;2022-07-06T06:39:11;5.50;;;2.42;;
54416;SDS011;40326;51.220;7.250;2022-07-06T06:41:37;6.32;;;2.72;;
54416;SDS011;40326;51.220;7.250;2022-07-06T06:44:02;7.15;;;2.47;;
54416;SDS011;40326;51.220;7.250;2022-07-06T06:46:28;5.70;;;1.98;;
54416;SDS011;40326;51.220;7.250;2022-07-06T06:48:53;7.97;;;2.40;;
54416;SDS011;40326;51.220;7.250;2022-07-06T06:51:18;4.90;;;2.30;;
54416;SDS011;40326;51.220;7.250;2022-07-06T06:53:45;11.93;;;2.78;;
54416;SDS011;40326;51.220;7.250;2022-07-06T06:56:11;7.13;;;2.95;;
54416;SDS011;40326;51.220;7.250;2022-07-06T06:58:37;6.10;;;2.58;;
54416;SDS011;40326;51.220;7.250;2022-07-06T07:01:03;6.95;;;2.50;;
54416;SDS011;40326;51.220;7.250;2022-07-06T07:03:31;5.70;;;2.47;;
54416;SDS011;40326;51.220;7.250;2022-07-06T07:05:57;6.88;;;3.05;;
54416;SDS011;40326;51.220;7.250;2022-07-06T07:08:22;7.70;;;2.50;;
54416;SDS011;40326;51.220;7.250;2022-07-06T07:10:47;5.38;;;2.28;;
54416;SDS011;40326;51.220;7.250;2022-07-06T07:13:13;7.68;;;3.05;;
54416;SDS011;40326;51.220;7.250;2022-07-06T07:15:38;6.30;;;2.50;;
54416;SDS011;40326;51.220;7.250;2022-07-06T07:18:04;8.07;;;2.35;;
54416;SDS011;40326;51.220;7.250;2022-07-06T07:20:29;8.35;;;2.65;;
54416;SDS011;40326;51.220;7.250;2022-07-06T07:22:55;6.88;;;2.00;;
54416;SDS011;40326;51.220;7.250;2022-07-06T07:25:21;4.70;;;2.13;;
54416;SDS011;40326;51.220;7.250;2022-07-06T07:27:46;6.30;;;2.90;;
54416;SDS011;40326;51.220;7.250;2022-07-06T07:30:12;8.95;;;3.20;;
54416;SDS011;40326;51.220;7.250;2022-07-06T07:32:37;6.05;;;2.70;;
54416;SDS011;40326;51.220;7.250;2022-07-06T07:35:05;5.75;;;3.15;;
54416;SDS011;40326;51.220;7.250;2022-07-06T07:37:31;6.03;;;2.65;;
54416;SDS011;40326;51.220;7.250;2022-07-06T07:39:56;5.20;;;2.75;;
54416;SDS011;40326;51.220;7.250;2022-07-06T07:42:22;7.18;;;2.85;;
54416;SDS011;40326;51.220;7.250;2022-07-06T07:44:47;6.43;;;3.05;;
54416;SDS011;40326;51.220;7.250;2022-07-06T07:47:12;8.90;;;3.10;;
54416;SDS011;40326;51.220;7.250;2022-07-06T07:49:38;8.30;;;3.58;;
54416;SDS011;40326;51.220;7.250;2022-07-06T07:52:04;8.40;;;3.65;;
54416;SDS011;40326;51.220;7.250;2022-07-06T07:54:29;7.82;;;2.95;;
54416;SDS011;40326;51.220;7.250;2022-07-06T07:56:55;9.63;;;3.10;;
54416;SDS011;40326;51.220;7.250;2022-07-06T07:59:20;7.97;;;3.53;;
54416;SDS011;40326;51.220;7.250;2022-07-06T08:01:45;5.63;;;3.00;;
54416;SDS011;40326;51.220;7.250;2022-07-06T08:04:11;6.40;;;3.13;;
54416;SDS011;40326;51.220;7.250;2022-07-06T08:06:36;6.30;;;3.10;;
54416;SDS011;40326;51.220;7.250;2022-07-06T08:09:02;6.65;;;3.15;;
54416;SDS011;40326;51.220;7.250;2022-07-06T08:11:29;5.30;;;2.78;;
54416;SDS011;40326;51.220;7.250;2022-07-06T08:13:54;4.65;;;2.40;;
54416;SDS011;40326;51.220;7.250;2022-07-06T08:16:20;5.15;;;2.75;;
54416;SDS011;40326;51.220;7.250;2022-07-06T08:18:45;5.43;;;2.70;;
54416;SDS011;40326;51.220;7.250;2022-07-06T08:21:11;5.85;;;2.78;;
54416;SDS011;40326;51.220;7.250;2022-07-06T08:23:36;6.60;;;2.47;;
54416;SDS011;40326;51.220;7.250;2022-07-06T08:26:02;5.32;;;2.30;;
54416;SDS011;40326;51.220;7.250;2022-07-06T08:28:28;10.35;;;2.40;;
54416;SDS011;40326;51.220;7.250;2022-07-06T08:30:54;4.57;;;2.28;;
54416;SDS011;40326;51.220;7.250;2022-07-06T08:33:20;5.80;;;2.33;;
54416;SDS011;40326;51.220;7.250;2022-07-06T08:35:45;4.45;;;2.00;;
54416;SDS011;40326;51.220;7.250;2022-07-06T08:38:11;4.55;;;2.03;;
54416;SDS011;40326;51.220;7.250;2022-07-06T08:40:36;4.40;;;1.58;;
54416;SDS011;40326;51.220;7.250;2022-07-06T08:43:04;7.78;;;1.95;;
54416;SDS011;40326;51.220;7.250;2022-07-06T08:45:30;4.03;;;1.60;;
54416;SDS011;40326;51.220;7.250;2022-07-06T08:48:04;3.80;;;1.88;;
54416;SDS011;40326;51.220;7.250;2022-07-06T08:50:32;3.95;;;1.38;;
54416;SDS011;40326;51.220;7.250;2022-07-06T08:52:58;4.57;;;1.90;;
54416;SDS011;40326;51.220;7.250;2022-07-06T08:55:27;4.10;;;1.40;;
54416;SDS011;40326;51.220;7.250;2022-07-06T08:57:56;4.13;;;1.50;;
54416;SDS011;40326;51.220;7.250;2022-07-06T09:00:23;3.83;;;1.30;;
54416;SDS011;40326;51.220;7.250;2022-07-06T09:02:50;4.22;;;1.38;;
54416;SDS011;40326;51.220;7.250;2022-07-06T09:05:16;2.72;;;1.25;;
54416;SDS011;40326;51.220;7.250;2022-07-06T09:07:42;4.57;;;1.40;;
54416;SDS011;40326;51.220;7.250;2022-07-06T09:10:13;3.72;;;1.20;;
54416;SDS011;40326;51.220;7.250;2022-07-06T09:12:42;4.03;;;1.40;;
54416;SDS011;40326;51.220;7.250;2022-07-06T09:15:07;4.05;;;1.23;;
54416;SDS011;40326;51.220;7.250;2022-07-06T09:17:33;5.40;;;1.00;;
54416;SDS011;40326;51.220;7.250;2022-07-06T09:20:02;4.00;;;1.20;;
54416;SDS011;40326;51.220;7.250;2022-07-06T09:22:31;5.22;;;1.08;;
54416;SDS011;40326;51.220;7.250;2022-07-06T09:25:07;5.45;;;1.10;;
54416;SDS011;40326;51.220;7.250;2022-07-06T09:27:41;3.05;;;1.00;;
54416;SDS011;40326;51.220;7.250;2022-07-06T09:30:09;5.35;;;1.10;;
54416;SDS011;40326;51.220;7.250;2022-07-06T09:32:39;5.13;;;1.10;;
54416;SDS011;40326;51.220;7.250;2022-07-06T09:35:06;5.07;;;1.00;;
54416;SDS011;40326;51.220;7.250;2022-07-06T09:37:31;1.67;;;1.00;;
54416;SDS011;40326;51.220;7.250;2022-07-06T09:39:57;1.80;;;1.08;;
54416;SDS011;40326;51.220;7.250;2022-07-06T09:42:25;2.85;;;1.10;;
54416;SDS011;40326;51.220;7.250;2022-07-06T09:44:51;3.92;;;1.23;;
54416;SDS011;40326;51.220;7.250;2022-07-06T09:47:17;5.53;;;1.30;;
54416;SDS011;40326;51.220;7.250;2022-07-06T09:49:45;1.52;;;0.80;;
54416;SDS011;40326;51.220;7.250;2022-07-06T09:52:11;3.53;;;1.00;;
54416;SDS011;40326;51.220;7.250;2022-07-06T09:54:37;1.60;;;0.93;;
54416;SDS011;40326;51.220;7.250;2022-07-06T09:57:04;1.85;;;1.00;;
54416;SDS011;40326;51.220;7.250;2022-07-06T09:59:31;2.10;;;1.08;;
54416;SDS011;40326;51.220;7.250;2022-07-06T10:01:59;2.35;;;1.05;;
54416;SDS011;40326;51.220;7.250;2022-07-06T10:04:27;1.75;;;0.98;;
54416;SDS011;40326;51.220;7.250;2022-07-06T10:06:56;2.90;;;1.10;;
54416;SDS011;40326;51.220;7.250;2022-07-06T10:09:24;2.60;;;1.10;;
54416;SDS011;40326;51.220;7.250;2022-07-06T10:14:26;2.17;;;1.08;;
54416;SDS011;40326;51.220;7.250;2022-07-06T10:16:54;3.10;;;1.08;;
54416;SDS011;40326;51.220;7.250;2022-07-06T10:19:23;4.90;;;1.00;;
54416;SDS011;40326;51.220;7.250;2022-07-06T10:21:49;3.60;;;1.10;;
54416;SDS011;40326;51.220;7.250;2022-07-06T10:24:16;2.72;;;1.15;;
54416;SDS011;40326;51.220;7.250;2022-07-06T10:26:43;2.92;;;1.00;;
54416;SDS011;40326;51.220;7.250;2022-07-06T10:29:10;2.22;;;0.93;;
54416;SDS011;40326;51.220;7.250;2022-07-06T10:31:37;3.35;;;1.15;;
54416;SDS011;40326;51.220;7.250;2022-07-06T10:34:06;2.45;;;1.10;;
54416;SDS011;40326;51.220;7.250;2022-07-06T10:36:38;1.52;;;0.90;;
54416;SDS011;40326;51.220;7.250;2022-07-06T10:39:05;1.15;;;0.90;;
54416;SDS011;40326;51.220;7.250;2022-07-06T10:41:50;2.50;;;1.05;;
54416;SDS011;40326;51.220;7.250;2022-07-06T10:44:16;3.13;;;1.08;;
54416;SDS011;40326;51.220;7.250;2022-07-06T10:46:49;2.63;;;1.05;;
54416;SDS011;40326;51.220;7.250;2022-07-06T10:51:42;8.77;;;1.83;;
54416;SDS011;40326;51.220;7.250;2022-07-06T10:54:08;2.17;;;1.15;;
54416;SDS011;40326;51.220;7.250;2022-07-06T10:56:42;2.78;;;1.30;;
54416;SDS011;40326;51.220;7.250;2022-07-06T10:59:14;5.20;;;1.52;;
54416;SDS011;40326;51.220;7.250;2022-07-06T11:04:46;4.30;;;1.10;;
54416;SDS011;40326;51.220;7.250;2022-07-06T11:07:13;1.95;;;1.00;;
54416;SDS011;40326;51.220;7.250;2022-07-06T11:09:40;1.30;;;0.98;;
54416;SDS011;40326;51.220;7.250;2022-07-06T11:12:16;3.00;;;1.05;;
54416;SDS011;40326;51.220;7.250;2022-07-06T11:14:43;2.70;;;1.08;;
54416;SDS011;40326;51.220;7.250;2022-07-06T11:17:10;2.33;;;1.10;;
54416;SDS011;40326;51.220;7.250;2022-07-06T11:19:36;3.33;;;1.15;;
54416;SDS011;40326;51.220;7.250;2022-07-06T11:22:06;2.88;;;1.10;;
54416;SDS011;40326;51.220;7.250;2022-07-06T11:24:33;3.25;;;1.10;;
54416;SDS011;40326;51.220;7.250;2022-07-06T11:27:00;2.28;;;1.05;;
54416;SDS011;40326;51.220;7.250;2022-07-06T11:29:27;4.07;;;1.27;;
54416;SDS011;40326;51.220;7.250;2022-07-06T11:31:55;3.15;;;1.20;;
54416;SDS011;40326;51.220;7.250;2022-07-06T11:34:24;3.25;;;1.35;;
54416;SDS011;40326;51.220;7.250;2022-07-06T11:39:33;3.92;;;1.17;;
54416;SDS011;40326;51.220;7.250;2022-07-06T11:42:06;2.13;;;1.00;;
54416;SDS011;40326;51.220;7.250;2022-07-06T11:44:33;4.72;;;1.40;;
54416;SDS011;40326;51.220;7.250;2022-07-06T11:46:59;2.55;;;1.20;;
54416;SDS011;40326;51.220;7.250;2022-07-06T11:49:27;4.05;;;1.17;;
54416;SDS011;40326;51.220;7.250;2022-07-06T11:51:53;3.33;;;1.20;;
54416;SDS011;40326;51.220;7.250;2022-07-06T11:54:19;1.88;;;1.00;;
54416;SDS011;40326;51.220;7.250;2022-07-06T11:56:48;2.80;;;1.08;;
54416;SDS011;40326;51.220;7.250;2022-07-06T11:59:19;3.42;;;1.20;;
54416;SDS011;40326;51.220;7.250;2022-07-06T12:01:46;3.33;;;1.13;;
54416;SDS011;40326;51.220;7.250;2022-07-06T12:04:11;2.35;;;0.90;;
54416;SDS011;40326;51.220;7.250;2022-07-06T12:06:37;2.60;;;1.30;;
54416;SDS011;40326;51.220;7.250;2022-07-06T12:09:02;2.38;;;1.00;;
54416;SDS011;40326;51.220;7.250;2022-07-06T12:11:31;3.58;;;1.15;;
54416;SDS011;40326;51.220;7.250;2022-07-06T12:13:59;4.57;;;1.30;;
54416;SDS011;40326;51.220;7.250;2022-07-06T12:16:33;4.63;;;1.52;;
54416;SDS011;40326;51.220;7.250;2022-07-06T12:18:59;3.75;;;1.80;;
54416;SDS011;40326;51.220;7.250;2022-07-06T12:21:26;3.10;;;1.60;;
54416;SDS011;40326;51.220;7.250;2022-07-06T12:23:52;3.00;;;1.60;;
54416;SDS011;40326;51.220;7.250;2022-07-06T12:26:19;3.70;;;1.70;;
54416;SDS011;40326;51.220;7.250;2022-07-06T12:29:04;4.63;;;1.52;;
54416;SDS011;40326;51.220;7.250;2022-07-06T12:31:43;4.15;;;1.85;;
54416;SDS011;40326;51.220;7.250;2022-07-06T12:34:13;3.85;;;1.70;;
54416;SDS011;40326;51.220;7.250;2022-07-06T12:37:12;5.25;;;2.38;;
54416;SDS011;40326;51.220;7.250;2022-07-06T12:39:32;4.38;;;1.58;;
54416;SDS011;40326;51.220;7.250;2022-07-06T12:42:09;5.60;;;1.70;;
54416;SDS011;40326;51.220;7.250;2022-07-06T12:44:41;5.78;;;1.77;;
54416;SDS011;40326;51.220;7.250;2022-07-06T12:49:37;6.85;;;1.73;;
54416;SDS011;40326;51.220;7.250;2022-07-06T12:54:32;5.25;;;1.42;;
54416;SDS011;40326;51.220;7.250;2022-07-06T12:57:41;4.93;;;1.40;;
54416;SDS011;40326;51.220;7.250;2022-07-06T13:02:24;2.03;;;1.10;;
54416;SDS011;40326;51.220;7.250;2022-07-06T13:04:55;4.00;;;1.00;;
54416;SDS011;40326;51.220;7.250;2022-07-06T13:07:21;5.15;;;1.20;;
54416;SDS011;40326;51.220;7.250;2022-07-06T13:09:46;3.03;;;0.93;;
54416;SDS011;40326;51.220;7.250;2022-07-06T13:12:12;3.97;;;1.15;;
54416;SDS011;40326;51.220;7.250;2022-07-06T13:14:37;2.90;;;1.27;;
54416;SDS011;40326;51.220;7.250;2022-07-06T13:17:03;2.03;;;1.08;;
54416;SDS011;40326;51.220;7.250;2022-07-06T13:19:28;4.05;;;1.20;;
54416;SDS011;40326;51.220;7.250;2022-07-06T13:21:54;4.00;;;1.30;;
54416;SDS011;40326;51.220;7.250;2022-07-06T13:24:20;2.63;;;1.13;;
54416;SDS011;40326;51.220;7.250;2022-07-06T13:26:45;3.85;;;1.02;;
54416;SDS011;40326;51.220;7.250;2022-07-06T13:29:11;3.40;;;0.85;;
54416;SDS011;40326;51.220;7.250;2022-07-06T13:31:38;2.42;;;1.10;;
54416;SDS011;40326;51.220;7.250;2022-07-06T13:34:04;5.05;;;1.55;;
54416;SDS011;40326;51.220;7.250;2022-07-06T13:36:30;3.70;;;1.17;;
54416;SDS011;40326;51.220;7.250;2022-07-06T13:38:56;7.05;;;1.40;;
54416;SDS011;40326;51.220;7.250;2022-07-06T13:41:21;2.50;;;1.20;;
54416;SDS011;40326;51.220;7.250;2022-07-06T13:43:46;3.80;;;1.33;;
54416;SDS011;40326;51.220;7.250;2022-07-06T13:46:12;4.25;;;1.35;;
54416;SDS011;40326;51.220;7.250;2022-07-06T13:48:37;2.05;;;1.15;;
54416;SDS011;40326;51.220;7.250;2022-07-06T13:51:03;2.75;;;1.10;;
54416;SDS011;40326;51.220;7.250;2022-07-06T13:53:28;2.65;;;1.17;;
54416;SDS011;40326;51.220;7.250;2022-07-06T13:55:56;3.30;;;1.33;;
54416;SDS011;40326;51.220;7.250;2022-07-06T13:58:21;2.72;;;1.20;;
54416;SDS011;40326;51.220;7.250;2022-07-06T14:00:47;4.00;;;1.58;;
54416;SDS011;40326;51.220;7.250;2022-07-06T14:03:12;3.80;;;1.27;;
54416;SDS011;40326;51.220;7.250;2022-07-06T14:05:38;4.35;;;1.42;;
54416;SDS011;40326;51.220;7.250;2022-07-06T14:08:03;2.05;;;1.10;;
54416;SDS011;40326;51.220;7.250;2022-07-06T14:10:29;1.20;;;0.88;;
54416;SDS011;40326;51.220;7.250;2022-07-06T14:12:54;5.13;;;1.40;;
54416;SDS011;40326;51.220;7.250;2022-07-06T14:15:19;2.83;;;1.25;;
54416;SDS011;40326;51.220;7.250;2022-07-06T14:17:45;2.97;;;1.15;;
54416;SDS011;40326;51.220;7.250;2022-07-06T14:20:12;2.35;;;1.13;;
54416;SDS011;40326;51.220;7.250;2022-07-06T14:22:38;3.40;;;1.23;;
54416;SDS011;40326;51.220;7.250;2022-07-06T14:25:03;5.50;;;1.40;;
54416;SDS011;40326;51.220;7.250;2022-07-06T14:27:30;5.20;;;1.35;;
54416;SDS011;40326;51.220;7.250;2022-07-06T14:29:55;2.58;;;1.20;;
54416;SDS011;40326;51.220;7.250;2022-07-06T14:32:21;3.20;;;1.20;;
54416;SDS011;40326;51.220;7.250;2022-07-06T14:34:46;3.78;;;1.10;;
54416;SDS011;40326;51.220;7.250;2022-07-06T14:37:12;4.55;;;1.20;;
54416;SDS011;40326;51.220;7.250;2022-07-06T14:39:37;2.42;;;1.40;;
54416;SDS011;40326;51.220;7.250;2022-07-06T14:42:02;3.97;;;1.10;;
54416;SDS011;40326;51.220;7.250;2022-07-06T14:44:28;3.00;;;1.20;;
54416;SDS011;40326;51.220;7.250;2022-07-06T14:46:53;1.80;;;1.00;;
54416;SDS011;40326;51.220;7.250;2022-07-06T14:49:18;4.30;;;1.08;;
54416;SDS011;40326;51.220;7.250;2022-07-06T14:51:44;2.38;;;0.95;;
54416;SDS011;40326;51.220;7.250;2022-07-06T14:54:09;5.28;;;1.30;;
54416;SDS011;40326;51.220;7.250;2022-07-06T14:56:35;2.97;;;1.20;;
54416;SDS011;40326;51.220;7.250;2022-07-06T14:59:01;2.72;;;1.10;;
54416;SDS011;40326;51.220;7.250;2022-07-06T15:01:27;1.80;;;0.80;;